Time;durP1;ratioP1;P1;durP2;ratioP2;P2;SDS_P1;SDS_P2;PMS_P1;PMS_P2;Temp;Humidity;BMP_temperature;BMP_pressure;BME280_temperature;BME280_humidity;BME280_pressure;Samples;Min_cycle;Max_cycle;Signal;HPM_P1;HPM_P2
2022/05/29 00:00:43;;;;;;;6.23;2.70;;;17.50;54.00;;;;;;4987777;28;20980;-75
2022/05/29 00:03:09;;;;;;;5.53;2.80;;;17.50;54.20;;;;;;4981798;28;20205;-74
2022/05/29 00:05:38;;;;;;;5.30;2.73;;;17.30;55.20;;;;;;4983569;28;20217;-76
2022/05/29 00:08:04;;;;;;;3.30;2.20;;;17.40;54.30;;;;;;4982607;28;20236;-75
2022/05/29 00:10:32;;;;;;;4.40;3.37;;;17.40;54.50;;;;;;4983513;28;20496;-74
2022/05/29 00:12:58;;;;;;;4.97;2.50;;;17.40;54.60;;;;;;4980598;28;20499;-76
2022/05/29 00:15:23;;;;;;;6.20;2.90;;;17.40;54.60;;;;;;4982700;28;20501;-77
2022/05/29 00:17:49;;;;;;;5.87;3.17;;;17.40;54.80;;;;;;4985418;28;20224;-76
2022/05/29 00:20:15;;;;;;;5.17;2.83;;;17.40;54.80;;;;;;4984897;28;20186;-76
2022/05/29 00:22:40;;;;;;;3.93;2.80;;;17.50;54.40;;;;;;4984509;28;20216;-77
2022/05/29 00:25:09;;;;;;;3.80;2.40;;;17.40;54.50;;;;;;4983364;28;20689;-76
2022/05/29 00:27:35;;;;;;;4.67;2.93;;;17.40;54.70;;;;;;4983519;28;20178;-77
2022/05/29 00:30:03;;;;;;;3.33;2.60;;;17.40;54.70;;;;;;4981663;28;20971;-77
2022/05/29 00:32:29;;;;;;;6.67;2.87;;;17.40;54.60;;;;;;4983399;28;20472;-76
2022/05/29 00:34:54;;;;;;;5.97;2.63;;;17.40;54.90;;;;;;4983763;28;20436;-76
2022/05/29 00:37:20;;;;;;;6.67;2.50;;;17.40;55.10;;;;;;4981066;28;20436;-76
2022/05/29 00:39:49;;;;;;;4.67;2.80;;;17.40;55.10;;;;;;4988014;28;20277;-76
2022/05/29 00:42:17;;;;;;;7.50;3.27;;;17.30;55.50;;;;;;4983489;28;20220;-76
2022/05/29 00:44:43;;;;;;;5.20;2.60;;;17.20;55.80;;;;;;4983160;28;20476;-77
2022/05/29 00:47:15;;;;;;;4.37;2.60;;;17.20;56.00;;;;;;4982408;28;20472;-75
2022/05/29 00:49:43;;;;;;;6.03;3.43;;;17.20;56.40;;;;;;4984535;28;20206;-75
2022/05/29 00:52:16;;;;;;;10.87;3.23;;;17.20;56.50;;;;;;4982327;28;20448;-76
2022/05/29 00:55:22;;;;;;;6.90;3.07;;;17.20;56.70;;;;;;4984544;28;20450;-75
2022/05/29 00:57:54;;;;;;;6.40;3.57;;;17.10;56.90;;;;;;4984389;28;21445;-76
2022/05/29 01:00:24;;;;;;;6.50;3.17;;;17.00;57.30;;;;;;4983368;28;20453;-76
2022/05/29 01:02:50;;;;;;;6.93;3.20;;;17.00;57.40;;;;;;4983207;28;20987;-77
2022/05/29 01:05:18;;;;;;;4.67;2.80;;;17.10;57.40;;;;;;4986685;28;20507;-77
2022/05/29 01:07:48;;;;;;;6.60;3.20;;;17.10;57.50;;;;;;4991935;28;20448;-77
2022/05/29 01:10:14;;;;;;;11.67;3.47;;;17.00;57.60;;;;;;4985968;28;20433;-76
2022/05/29 01:12:49;;;;;;;4.70;2.90;;;17.00;57.70;;;;;;4985610;28;20522;-75
2022/05/29 01:15:53;;;;;;;8.47;3.30;;;17.00;57.70;;;;;;4986093;28;20531;-76
2022/05/29 01:18:27;;;;;;;5.10;2.93;;;17.00;58.20;;;;;;4986004;28;20441;-76
2022/05/29 01:21:04;;;;;;;4.13;2.53;;;16.90;58.50;;;;;;4987391;28;22844;-74
2022/05/29 01:24:00;;;;;;;7.20;2.97;;;16.90;58.90;;;;;;4988247;28;20440;-76
2022/05/29 01:26:36;;;;;;;4.37;3.00;;;16.80;59.00;;;;;;4989188;28;20654;-77
2022/05/29 01:29:05;;;;;;;6.80;3.20;;;16.80;58.90;;;;;;4984628;28;20795;-75
2022/05/29 01:31:51;;;;;;;6.57;3.27;;;16.70;58.90;;;;;;4988172;28;20463;-76
2022/05/29 01:34:19;;;;;;;6.93;3.00;;;16.70;59.00;;;;;;4981899;28;21014;-76
2022/05/29 01:37:16;;;;;;;8.30;3.17;;;16.80;59.10;;;;;;4981769;28;20528;-75
2022/05/29 01:39:59;;;;;;;11.73;3.27;;;16.70;59.10;;;;;;4990543;28;21141;-75
2022/05/29 01:42:57;;;;;;;5.53;3.07;;;16.70;58.70;;;;;;4988209;28;20992;-75
2022/05/29 01:45:25;;;;;;;5.30;3.10;;;16.70;59.10;;;;;;4985922;28;20492;-76
2022/05/29 01:48:01;;;;;;;8.87;3.30;;;16.70;59.20;;;;;;4982511;28;20437;-75
2022/05/29 01:50:32;;;;;;;6.87;2.80;;;16.60;59.30;;;;;;4985455;28;20440;-75
2022/05/29 01:53:14;;;;;;;5.70;2.60;;;16.60;59.20;;;;;;4982777;28;20449;-76
2022/05/29 01:55:54;;;;;;;8.33;3.43;;;16.60;59.30;;;;;;4978984;28;20437;-75
2022/05/29 01:58:39;;;;;;;6.93;2.90;;;16.50;59.40;;;;;;4965400;28;20819;-75
2022/05/29 02:01:07;;;;;;;4.83;3.00;;;16.40;59.60;;;;;;4981260;28;20462;-74
2022/05/29 02:03:42;;;;;;;5.30;2.90;;;16.50;59.60;;;;;;4982463;28;20444;-74
2022/05/29 02:06:14;;;;;;;5.60;2.90;;;16.50;59.40;;;;;;4983800;28;20506;-74
2022/05/29 02:08:49;;;;;;;5.77;3.03;;;16.40;59.70;;;;;;4985681;28;20941;-74
2022/05/29 02:11:25;;;;;;;10.47;2.83;;;16.40;59.80;;;;;;4981947;28;20467;-75
2022/05/29 02:14:13;;;;;;;4.63;3.23;;;16.40;59.60;;;;;;4980542;28;20440;-73
2022/05/29 02:16:58;;;;;;;6.37;3.03;;;16.40;59.80;;;;;;4980390;28;20466;-76
2022/05/29 02:19:50;;;;;;;3.70;2.77;;;16.40;59.60;;;;;;4963540;28;20856;-76
2022/05/29 02:22:25;;;;;;;6.87;2.80;;;16.30;59.70;;;;;;4972071;28;21465;-75
2022/05/29 02:24:55;;;;;;;6.57;3.33;;;16.30;59.90;;;;;;4964294;28;20992;-76
2022/05/29 02:27:46;;;;;;;7.33;3.30;;;16.30;59.80;;;;;;4981173;28;20808;-76
2022/05/29 02:30:14;;;;;;;7.23;3.13;;;16.20;60.20;;;;;;4974447;28;20834;-74
2022/05/29 02:32:49;;;;;;;6.33;2.90;;;16.20;60.60;;;;;;4980692;28;20464;-76
2022/05/29 02:35:34;;;;;;;3.33;2.50;;;16.10;60.70;;;;;;4981857;28;21139;-75
2022/05/29 02:38:22;;;;;;;4.60;2.90;;;16.20;60.90;;;;;;4979794;28;20436;-75
2022/05/29 02:41:08;;;;;;;7.40;3.73;;;16.20;61.10;;;;;;4980060;28;20537;-76
2022/05/29 02:44:05;;;;;;;10.97;3.10;;;16.20;61.00;;;;;;4981303;28;20547;-75
2022/05/29 02:46:40;;;;;;;5.53;2.93;;;16.10;61.20;;;;;;4977745;28;20540;-76
2022/05/29 02:49:35;;;;;;;6.97;2.73;;;16.20;61.60;;;;;;4980851;28;20429;-75
2022/05/29 02:52:12;;;;;;;3.93;2.90;;;16.20;61.50;;;;;;4969643;28;20515;-75
2022/05/29 02:54:38;;;;;;;5.67;2.97;;;16.20;61.70;;;;;;4979797;28;20458;-75
2022/05/29 02:57:04;;;;;;;7.90;3.10;;;16.10;62.00;;;;;;4981185;28;20531;-75
2022/05/29 02:59:34;;;;;;;6.53;3.20;;;16.00;62.30;;;;;;4982658;28;20441;-74
2022/05/29 03:02:15;;;;;;;4.57;3.10;;;15.90;63.10;;;;;;4983272;28;21023;-76
2022/05/29 03:04:49;;;;;;;6.43;2.87;;;15.90;63.10;;;;;;4979853;28;20567;-75
2022/05/29 03:07:49;;;;;;;6.53;3.00;;;15.90;63.20;;;;;;4985651;28;20433;-75
2022/05/29 03:10:17;;;;;;;6.27;3.23;;;15.90;63.40;;;;;;4983936;28;20979;-72
2022/05/29 03:12:51;;;;;;;6.87;2.90;;;15.90;63.70;;;;;;4984255;28;21041;-72
2022/05/29 03:16:12;;;;;;;7.40;3.27;;;15.80;63.90;;;;;;4984951;28;20440;-73
2022/05/29 03:19:02;;;;;;;7.50;3.30;;;15.70;64.40;;;;;;4948805;28;20887;-75
2022/05/29 03:22:02;;;;;;;5.40;3.20;;;15.60;64.90;;;;;;4983126;28;20461;-76
2022/05/29 03:24:41;;;;;;;8.50;3.60;;;15.50;64.80;;;;;;4955344;28;20461;-74
2022/05/29 03:27:21;;;;;;;7.27;3.60;;;15.40;65.40;;;;;;4982932;28;20428;-75
2022/05/29 03:30:01;;;;;;;5.53;3.10;;;15.30;66.00;;;;;;4979669;28;21046;-75
2022/05/29 03:32:27;;;;;;;4.47;3.20;;;15.20;66.20;;;;;;4981263;28;21270;-72
2022/05/29 03:34:53;;;;;;;4.47;2.70;;;15.30;66.20;;;;;;4987681;28;20436;-73
2022/05/29 03:37:19;;;;;;;5.60;2.90;;;15.30;66.20;;;;;;4982800;28;20861;-73
2022/05/29 03:39:45;;;;;;;5.97;3.23;;;15.40;66.30;;;;;;4980858;28;20518;-74
2022/05/29 03:42:12;;;;;;;8.07;4.07;;;15.40;66.50;;;;;;4982462;28;20260;-75
2022/05/29 03:44:38;;;;;;;9.47;3.33;;;15.40;66.50;;;;;;4982797;28;20692;-75
2022/05/29 03:47:03;;;;;;;8.73;3.77;;;15.30;66.50;;;;;;4977600;28;20491;-73
2022/05/29 03:49:29;;;;;;;5.13;2.67;;;15.40;66.80;;;;;;4979495;28;20639;-74
2022/05/29 03:51:55;;;;;;;8.70;4.70;;;15.30;66.70;;;;;;4981201;28;20333;-75
2022/05/29 03:54:21;;;;;;;4.83;3.03;;;15.30;67.30;;;;;;4985088;28;20689;-75
2022/05/29 03:56:46;;;;;;;6.50;3.53;;;15.30;67.40;;;;;;4980108;28;20441;-75
2022/05/29 03:59:12;;;;;;;4.70;2.70;;;15.30;67.50;;;;;;4983485;28;20201;-76
2022/05/29 04:01:38;;;;;;;6.57;3.37;;;15.30;67.90;;;;;;4980865;28;20364;-76
2022/05/29 04:04:04;;;;;;;6.00;3.10;;;15.40;68.70;;;;;;4966056;28;20837;-75
2022/05/29 04:06:34;;;;;;;5.57;3.10;;;15.40;69.40;;;;;;4985909;28;20605;-75
2022/05/29 04:14:30;;;;;;;6.17;2.73;;;15.30;72.80;;;;;;4984046;28;20494;-75
2022/05/29 04:16:56;;;;;;;4.07;3.23;;;15.10;74.40;;;;;;4985741;28;20446;-75
2022/05/29 04:19:22;;;;;;;7.03;3.23;;;15.20;75.80;;;;;;4987327;28;20814;-75
2022/05/29 04:21:49;;;;;;;5.27;3.07;;;15.00;77.30;;;;;;4983712;28;21039;-75
2022/05/29 04:24:16;;;;;;;9.97;3.00;;;14.90;79.80;;;;;;4987608;28;20194;-75
2022/05/29 04:26:42;;;;;;;5.23;3.60;;;14.80;79.90;;;;;;4984046;28;20532;-74
2022/05/29 04:29:07;;;;;;;7.37;3.40;;;14.80;80.70;;;;;;4968121;28;20531;-75
2022/05/29 04:31:33;;;;;;;6.90;4.20;;;14.90;81.60;;;;;;4987187;28;20574;-75
2022/05/29 04:33:59;;;;;;;5.93;3.73;;;14.70;82.70;;;;;;4983675;28;20190;-75
2022/05/29 04:36:25;;;;;;;6.27;3.43;;;14.60;84.40;;;;;;4986959;28;20895;-74
2022/05/29 04:38:52;;;;;;;8.73;3.93;;;14.60;84.60;;;;;;4988908;28;20611;-75
2022/05/29 04:41:19;;;;;;;8.60;3.77;;;14.70;85.10;;;;;;4985355;28;21425;-74
2022/05/29 04:43:45;;;;;;;8.07;3.97;;;14.70;86.20;;;;;;4985547;28;20425;-73
2022/05/29 04:46:11;;;;;;;6.73;3.60;;;14.70;86.40;;;;;;4984822;28;20496;-75
2022/05/29 04:48:36;;;;;;;3.93;3.40;;;14.80;87.30;;;;;;4988512;28;20586;-73
2022/05/29 04:51:05;;;;;;;6.57;3.90;;;14.70;88.20;;;;;;4983789;28;20190;-74
2022/05/29 04:53:32;;;;;;;7.13;3.70;;;14.80;88.50;;;;;;4985131;28;20627;-74
2022/05/29 04:55:59;;;;;;;10.20;3.63;;;14.70;88.20;;;;;;4983942;28;20441;-74
2022/05/29 04:58:26;;;;;;;9.43;4.40;;;14.70;88.70;;;;;;4986735;28;20473;-74
2022/05/29 05:00:56;;;;;;;11.17;3.77;;;14.90;88.70;;;;;;4985289;28;20460;-75
2022/05/29 05:03:22;;;;;;;7.50;3.40;;;15.00;88.70;;;;;;4982071;28;20437;-75
2022/05/29 05:05:48;;;;;;;6.23;3.90;;;15.00;89.20;;;;;;4989506;28;20482;-74
2022/05/29 05:08:13;;;;;;;7.60;3.47;;;15.00;89.10;;;;;;4964756;28;20635;-75
2022/05/29 05:10:41;;;;;;;7.33;3.63;;;15.10;88.60;;;;;;4983984;28;20182;-75
2022/05/29 05:13:08;;;;;;;8.20;3.87;;;15.10;88.30;;;;;;4982751;28;20206;-74
2022/05/29 05:15:34;;;;;;;5.90;3.40;;;15.10;88.70;;;;;;4982939;28;20434;-75
2022/05/29 05:17:59;;;;;;;11.53;3.87;;;15.10;88.70;;;;;;4982691;28;20467;-75
2022/05/29 05:20:25;;;;;;;5.63;4.40;;;15.10;88.60;;;;;;4982019;28;20190;-74
2022/05/29 05:22:52;;;;;;;9.23;3.87;;;15.20;88.90;;;;;;4979889;28;20257;-74
2022/05/29 05:25:17;;;;;;;7.10;3.67;;;15.30;89.00;;;;;;4980924;28;20681;-75
2022/05/29 05:27:43;;;;;;;7.93;3.57;;;15.30;87.10;;;;;;4982515;28;20440;-74
2022/05/29 05:30:09;;;;;;;4.17;3.03;;;15.30;87.60;;;;;;4983066;28;20259;-75
2022/05/29 05:32:35;;;;;;;4.23;3.30;;;15.30;87.50;;;;;;4980662;28;20348;-75
2022/05/29 05:35:04;;;;;;;6.17;3.30;;;15.40;86.30;;;;;;4984332;28;20531;-75
2022/05/29 05:37:30;;;;;;;7.80;3.43;;;15.30;85.20;;;;;;4983497;28;20177;-75
2022/05/29 05:39:56;;;;;;;8.80;2.97;;;15.30;85.80;;;;;;4984424;28;20440;-76
2022/05/29 05:42:22;;;;;;;5.87;3.47;;;15.40;85.50;;;;;;4988021;28;20445;-74
2022/05/29 05:44:48;;;;;;;8.93;3.83;;;15.10;85.50;;;;;;4983834;28;20529;-74
2022/05/29 05:47:14;;;;;;;6.50;3.23;;;15.00;85.90;;;;;;4982469;28;20193;-74
2022/05/29 05:49:39;;;;;;;8.40;3.27;;;15.10;85.50;;;;;;4982916;28;20437;-75
2022/05/29 05:52:05;;;;;;;10.90;3.90;;;15.10;85.40;;;;;;4983030;28;20743;-74
2022/05/29 05:54:34;;;;;;;11.33;3.83;;;15.10;85.70;;;;;;4953028;28;20186;-74
2022/05/29 05:56:59;;;;;;;4.60;3.03;;;15.00;85.60;;;;;;4983009;28;20446;-76
2022/05/29 05:59:25;;;;;;;6.20;2.90;;;15.10;86.30;;;;;;4986766;28;20834;-75
2022/05/29 06:01:52;;;;;;;10.70;3.40;;;15.20;87.20;;;;;;4983219;28;20225;-73
2022/05/29 06:04:18;;;;;;;7.30;3.37;;;15.30;86.60;;;;;;4968809;28;20464;-75
2022/05/29 06:06:44;;;;;;;8.27;3.50;;;15.30;87.30;;;;;;4986562;28;20598;-74
2022/05/29 06:09:09;;;;;;;10.97;3.97;;;15.40;87.10;;;;;;4980806;28;20178;-75
2022/05/29 06:11:39;;;;;;;8.53;3.77;;;15.40;88.30;;;;;;4982838;28;20197;-75
2022/05/29 06:14:05;;;;;;;6.70;3.13;;;15.50;88.90;;;;;;4982958;28;20193;-74
2022/05/29 06:16:31;;;;;;;6.47;3.40;;;15.40;89.30;;;;;;4984122;28;20991;-74
2022/05/29 06:18:56;;;;;;;7.13;4.33;;;15.40;89.90;;;;;;4986362;28;20436;-73
2022/05/29 06:21:22;;;;;;;12.03;3.60;;;15.50;90.50;;;;;;4981823;28;20294;-74
2022/05/29 06:23:48;;;;;;;6.73;3.67;;;15.60;88.10;;;;;;4986220;28;20677;-74
2022/05/29 06:26:14;;;;;;;7.97;3.37;;;15.60;88.30;;;;;;4966083;28;20213;-74
2022/05/29 06:28:41;;;;;;;8.90;3.30;;;15.60;88.80;;;;;;4981078;28;20178;-76
2022/05/29 06:31:08;;;;;;;9.67;3.30;;;15.70;88.70;;;;;;4985317;28;20944;-75
2022/05/29 06:33:34;;;;;;;7.00;3.83;;;15.80;88.30;;;;;;4983495;28;20532;-74
2022/05/29 06:36:13;;;;;;;8.30;3.73;;;15.80;88.40;;;;;;4983552;28;20434;-74
2022/05/29 06:38:39;;;;;;;8.43;4.33;;;15.80;88.20;;;;;;4980173;28;20444;-75
2022/05/29 06:41:07;;;;;;;5.50;3.30;;;15.80;89.80;;;;;;4981808;28;20451;-73
2022/05/29 06:43:33;;;;;;;5.80;3.37;;;15.90;89.20;;;;;;4982652;28;20428;-74
2022/05/29 06:46:00;;;;;;;6.87;3.30;;;16.00;89.30;;;;;;4982145;28;20475;-73
2022/05/29 06:48:26;;;;;;;5.93;3.37;;;16.00;89.70;;;;;;4982482;28;21431;-74
2022/05/29 06:50:52;;;;;;;6.57;4.20;;;16.20;89.80;;;;;;4981112;28;20516;-73
2022/05/29 06:53:17;;;;;;;13.40;6.87;;;16.30;89.60;;;;;;4980366;28;20240;-72
2022/05/29 06:55:56;;;;;;;7.80;4.53;;;16.20;90.00;;;;;;4982541;28;20483;-75
2022/05/29 06:58:22;;;;;;;9.40;3.57;;;16.30;90.10;;;;;;4964371;28;20232;-73
2022/05/29 07:09:04;;;;;;;6.87;4.90;;;16.40;90.30;;;;;;4981093;28;20444;-75
2022/05/29 07:11:35;;;;;;;7.80;4.37;;;16.40;90.10;;;;;;4980389;28;20452;-73
2022/05/29 07:14:02;;;;;;;7.87;5.00;;;16.50;90.00;;;;;;4981211;28;20437;-74
2022/05/29 07:16:28;;;;;;;10.60;3.47;;;16.40;88.90;;;;;;4982586;28;20491;-73
2022/05/29 07:18:54;;;;;;;8.50;5.27;;;16.30;87.10;;;;;;4981833;28;20445;-73
2022/05/29 07:21:20;;;;;;;4.37;3.30;;;16.30;88.20;;;;;;4981527;28;20212;-73
2022/05/29 07:23:46;;;;;;;12.13;6.30;;;16.30;87.80;;;;;;4981797;28;20198;-75
2022/05/29 07:26:11;;;;;;;5.03;4.10;;;16.40;87.90;;;;;;4985163;28;20499;-74
2022/05/29 07:28:37;;;;;;;5.93;3.20;;;16.40;88.10;;;;;;4984056;28;20818;-73
2022/05/29 07:31:03;;;;;;;10.30;3.53;;;16.40;87.80;;;;;;4980860;28;20213;-74
2022/05/29 07:33:29;;;;;;;9.40;3.10;;;16.40;87.90;;;;;;4964817;28;20729;-74
2022/05/29 07:35:54;;;;;;;7.97;3.20;;;16.30;88.30;;;;;;4981397;28;20472;-74
2022/05/29 07:38:20;;;;;;;8.80;2.80;;;16.40;88.50;;;;;;4986375;28;20185;-75
2022/05/29 07:40:46;;;;;;;7.57;3.10;;;16.30;88.20;;;;;;4987940;28;20188;-76
2022/05/29 07:43:22;;;;;;;8.20;3.60;;;16.30;88.70;;;;;;4986683;28;20211;-77
2022/05/29 07:46:00;;;;;;;7.43;3.63;;;16.20;89.30;;;;;;4986386;28;20213;-73
2022/05/29 07:48:28;;;;;;;5.47;3.07;;;16.10;90.90;;;;;;4981587;28;20971;-76
2022/05/29 07:50:54;;;;;;;5.73;2.93;;;16.00;90.60;;;;;;4969879;28;20797;-74
2022/05/29 07:53:21;;;;;;;7.30;3.70;;;15.90;90.90;;;;;;4967475;28;20606;-75
2022/05/29 07:55:46;;;;;;;4.03;2.50;;;15.80;90.80;;;;;;4983366;28;21857;-75
2022/05/29 07:58:13;;;;;;;5.83;3.30;;;15.70;91.20;;;;;;4984273;28;20606;-75
2022/05/29 08:00:40;;;;;;;5.67;2.33;;;15.70;91.20;;;;;;4984845;28;20236;-75
2022/05/29 08:03:06;;;;;;;4.63;2.80;;;15.60;91.40;;;;;;4985823;28;20529;-75
2022/05/29 08:05:35;;;;;;;4.97;2.90;;;15.60;91.70;;;;;;4984984;28;20464;-75
2022/05/29 08:08:04;;;;;;;6.83;3.27;;;15.50;91.50;;;;;;4985186;28;20645;-75
2022/05/29 08:10:33;;;;;;;5.53;3.00;;;15.50;91.80;;;;;;4966553;28;21147;-75
2022/05/29 08:12:59;;;;;;;6.63;3.20;;;15.50;91.70;;;;;;4978959;28;20567;-75
2022/05/29 08:15:25;;;;;;;4.87;2.70;;;15.50;91.80;;;;;;4983014;28;21104;-74
2022/05/29 08:17:50;;;;;;;7.10;2.70;;;15.40;91.70;;;;;;4984330;28;20489;-74
2022/05/29 08:20:17;;;;;;;4.33;2.70;;;15.40;91.60;;;;;;4984071;28;20464;-74
2022/05/29 08:22:43;;;;;;;3.10;2.30;;;15.50;91.80;;;;;;4988536;28;20256;-74
2022/05/29 08:30:52;;;;;;;3.87;2.67;;;15.40;92.80;;;;;;4953044;28;20434;-74
2022/05/29 08:33:20;;;;;;;2.60;2.40;;;15.50;93.80;;;;;;4985331;28;20456;-76
2022/05/29 08:35:49;;;;;;;4.67;2.27;;;15.70;94.20;;;;;;4985701;28;20456;-76
2022/05/29 08:38:17;;;;;;;3.33;2.30;;;15.80;93.80;;;;;;4986758;28;20433;-75
2022/05/29 08:41:04;;;;;;;4.10;2.70;;;15.90;94.40;;;;;;4966947;28;20571;-74
2022/05/29 08:43:33;;;;;;;6.63;2.20;;;15.90;95.40;;;;;;4985925;28;20500;-74
2022/05/29 08:46:05;;;;;;;3.50;2.83;;;15.90;94.90;;;;;;4984186;28;20472;-73
2022/05/29 08:48:31;;;;;;;3.53;2.57;;;16.00;95.20;;;;;;4984677;28;20472;-73
2022/05/29 08:51:30;;;;;;;5.10;2.57;;;15.90;95.80;;;;;;4984244;28;20446;-73
2022/05/29 08:53:59;;;;;;;8.30;4.30;;;16.00;95.90;;;;;;4983674;28;20444;-72
2022/05/29 08:56:35;;;;;;;5.60;2.60;;;16.10;95.30;;;;;;4981756;28;20437;-76
2022/05/29 08:59:43;;;;;;;3.80;3.17;;;16.10;95.50;;;;;;4966242;28;20452;-74
2022/05/29 09:02:30;;;;;;;4.77;3.13;;;16.10;94.70;;;;;;4972834;28;21039;-72
2022/05/29 09:05:18;;;;;;;3.60;2.40;;;16.10;95.00;;;;;;4987862;28;20476;-74
2022/05/29 09:07:45;;;;;;;6.30;2.90;;;16.20;95.10;;;;;;4985884;28;20483;-73
2022/05/29 09:10:17;;;;;;;3.97;2.70;;;16.30;95.40;;;;;;4983554;28;20535;-74
2022/05/29 09:12:53;;;;;;;4.70;2.50;;;16.40;96.00;;;;;;4982549;28;20809;-73
2022/05/29 09:15:40;;;;;;;3.10;2.80;;;16.50;95.50;;;;;;4983122;28;20446;-75
2022/05/29 09:18:12;;;;;;;4.03;2.57;;;16.70;94.50;;;;;;4983743;28;20468;-75
2022/05/29 09:20:48;;;;;;;4.40;3.00;;;16.70;93.00;;;;;;4983675;28;20437;-75
2022/05/29 09:23:20;;;;;;;6.00;2.50;;;16.80;93.10;;;;;;4985590;28;20495;-70
2022/05/29 09:25:46;;;;;;;4.00;2.40;;;16.90;93.40;;;;;;4984484;28;20540;-74
2022/05/29 09:28:18;;;;;;;2.93;2.60;;;16.90;93.80;;;;;;4980026;28;20433;-73
2022/05/29 09:30:45;;;;;;;4.03;2.73;;;16.90;92.90;;;;;;4985514;28;20432;-73
2022/05/29 09:33:26;;;;;;;4.87;2.57;;;16.90;91.50;;;;;;4982714;28;20850;-73
2022/05/29 09:36:26;;;;;;;3.87;2.77;;;16.90;91.60;;;;;;4980607;28;21166;-73
2022/05/29 09:39:01;;;;;;;4.87;2.87;;;17.00;91.30;;;;;;4986117;28;20797;-74
2022/05/29 09:41:50;;;;;;;3.97;2.57;;;16.80;90.80;;;;;;4986191;28;20827;-76
2022/05/29 09:44:19;;;;;;;4.63;3.03;;;16.80;91.40;;;;;;4985082;28;20433;-74
2022/05/29 09:46:47;;;;;;;5.90;2.70;;;17.00;91.00;;;;;;4983709;28;20526;-73
2022/05/29 09:49:40;;;;;;;5.30;2.90;;;17.10;90.90;;;;;;4988693;28;20417;-74
2022/05/29 09:52:31;;;;;;;3.40;2.80;;;17.20;91.20;;;;;;4979300;28;21048;-72
2022/05/29 09:55:06;;;;;;;4.00;2.60;;;17.30;91.60;;;;;;4986144;28;20437;-74
2022/05/29 09:57:52;;;;;;;4.60;2.80;;;17.50;91.70;;;;;;4985112;28;20531;-74
2022/05/29 10:00:27;;;;;;;3.80;2.80;;;17.60;90.70;;;;;;4980670;28;20440;-75
2022/05/29 10:02:54;;;;;;;2.80;2.37;;;17.60;90.80;;;;;;4986924;28;20514;-74
2022/05/29 10:05:27;;;;;;;4.67;2.20;;;17.70;89.20;;;;;;4984151;28;20471;-74
2022/05/29 10:07:55;;;;;;;2.00;1.80;;;17.60;87.20;;;;;;4967171;28;20575;-75
2022/05/29 10:10:24;;;;;;;3.23;2.00;;;17.50;86.50;;;;;;4993055;28;20488;-72
2022/05/29 10:12:55;;;;;;;7.50;3.00;;;17.50;87.40;;;;;;4989259;28;20451;-72
2022/05/29 10:15:27;;;;;;;3.57;2.10;;;17.50;87.70;;;;;;4986500;28;20543;-72
2022/05/29 10:17:58;;;;;;;4.93;2.60;;;17.40;87.40;;;;;;4986164;28;20458;-73
2022/05/29 10:20:42;;;;;;;3.60;2.30;;;17.40;87.70;;;;;;4985551;28;20430;-72
2022/05/29 10:23:32;;;;;;;2.60;2.40;;;17.40;86.70;;;;;;4984287;28;20548;-74
2022/05/29 10:26:03;;;;;;;3.30;2.50;;;17.20;85.60;;;;;;4967843;28;20461;-73
2022/05/29 10:28:34;;;;;;;3.00;2.37;;;17.30;86.40;;;;;;4986359;28;20441;-72
2022/05/29 10:31:06;;;;;;;5.53;2.93;;;17.40;85.60;;;;;;4985927;28;20417;-73
2022/05/29 10:33:33;;;;;;;5.90;2.77;;;17.50;85.90;;;;;;4991119;28;20599;-72
2022/05/29 10:36:22;;;;;;;4.20;2.43;;;17.60;83.70;;;;;;4985166;28;20483;-73
2022/05/29 10:39:07;;;;;;;5.80;2.50;;;17.70;84.20;;;;;;4979879;28;20436;-72
2022/05/29 10:41:37;;;;;;;3.70;2.60;;;17.60;84.00;;;;;;4990938;28;20449;-73
2022/05/29 10:44:04;;;;;;;4.10;2.50;;;17.70;81.60;;;;;;4985924;28;20890;-73
2022/05/29 10:46:52;;;;;;;4.70;3.13;;;17.80;80.80;;;;;;4985025;28;20437;-72
2022/05/29 10:49:24;;;;;;;5.67;3.27;;;17.80;79.50;;;;;;4985095;28;21678;-73
2022/05/29 10:52:14;;;;;;;5.00;2.73;;;17.90;81.10;;;;;;4983858;28;20466;-73
2022/05/29 10:54:58;;;;;;;6.00;4.43;;;17.90;81.00;;;;;;4962237;28;20429;-73
2022/05/29 10:57:29;;;;;;;3.63;2.70;;;18.20;81.80;;;;;;4985370;28;20800;-73
2022/05/29 11:00:14;;;;;;;4.60;2.97;;;18.30;79.60;;;;;;4982913;28;20439;-73
2022/05/29 11:05:47;;;;;;;3.37;2.83;;;18.50;80.70;;;;;;4985517;28;20475;-73
2022/05/29 11:08:50;;;;;;;5.53;2.70;;;18.30;76.90;;;;;;4980873;28;20465;-73
2022/05/29 11:11:46;;;;;;;9.20;3.20;;;18.60;75.10;;;;;;4981418;28;20515;-75
2022/05/29 11:14:49;;;;;;;5.07;2.63;;;18.60;76.20;;;;;;4987978;28;20431;-74
2022/05/29 11:17:46;;;;;;;4.23;2.57;;;18.60;73.80;;;;;;4987356;28;20703;-74
2022/05/29 11:20:47;;;;;;;3.70;2.50;;;18.80;73.20;;;;;;4988264;28;20981;-74
2022/05/29 11:24:05;;;;;;;4.43;2.57;;;19.00;72.00;;;;;;4935702;28;20445;-73
2022/05/29 11:26:58;;;;;;;4.30;2.23;;;19.20;68.90;;;;;;4906036;29;21023;-73
2022/05/29 11:29:40;;;;;;;4.60;3.07;;;19.50;67.90;;;;;;4986813;28;20530;-74
2022/05/29 11:32:22;;;;;;;3.70;2.60;;;19.60;67.60;;;;;;4986762;28;20472;-73
2022/05/29 11:35:11;;;;;;;4.33;2.57;;;19.10;66.40;;;;;;4968988;28;20436;-74
2022/05/29 11:37:58;;;;;;;4.53;3.27;;;19.20;65.70;;;;;;4985620;28;20960;-74
2022/05/29 11:40:33;;;;;;;3.90;2.50;;;19.30;65.80;;;;;;4985986;28;20417;-72
2022/05/29 11:43:07;;;;;;;9.00;2.97;;;19.30;66.20;;;;;;4985975;28;20456;-72
2022/05/29 11:52:53;;;;;;;3.73;2.50;;;19.30;64.70;;;;;;4986411;28;20514;-74
2022/05/29 11:55:27;;;;;;;3.63;2.50;;;19.20;63.90;;;;;;4987224;28;20962;-72
2022/05/29 11:57:58;;;;;;;4.73;2.30;;;18.80;62.60;;;;;;4987345;28;20440;-73
2022/05/29 12:00:49;;;;;;;5.23;2.67;;;18.90;63.10;;;;;;4992465;28;20463;-74
2022/05/29 12:03:31;;;;;;;2.90;2.60;;;19.00;62.60;;;;;;4989446;28;20850;-73
2022/05/29 12:06:14;;;;;;;4.17;2.80;;;19.10;61.10;;;;;;4981427;28;20477;-71
2022/05/29 12:08:57;;;;;;;4.67;2.63;;;19.20;61.30;;;;;;4990209;28;20456;-73
2022/05/29 12:11:37;;;;;;;3.90;2.30;;;19.20;60.30;;;;;;4985751;28;20532;-72
2022/05/29 12:14:06;;;;;;;3.93;2.80;;;19.10;60.20;;;;;;4965860;28;20549;-74
2022/05/29 12:16:34;;;;;;;4.10;2.43;;;19.40;59.90;;;;;;4987097;28;20580;-72
2022/05/29 12:19:03;;;;;;;4.60;2.63;;;19.40;59.20;;;;;;4991147;28;20452;-73
2022/05/29 12:21:41;;;;;;;3.70;2.50;;;21.10;57.70;;;;;;4982196;28;20965;-72
2022/05/29 12:24:10;;;;;;;2.90;2.20;;;24.20;56.10;;;;;;4984575;28;20431;-73
2022/05/29 12:26:43;;;;;;;8.87;2.57;;;26.60;50.10;;;;;;4963367;28;20528;-74
2022/05/29 12:29:18;;;;;;;4.53;2.40;;;26.10;46.10;;;;;;4985293;28;20437;-74
2022/05/29 12:31:47;;;;;;;4.20;2.60;;;26.30;45.90;;;;;;4987165;28;20539;-72
2022/05/29 12:34:22;;;;;;;5.23;2.80;;;27.40;45.00;;;;;;4985870;28;20521;-74
2022/05/29 12:37:11;;;;;;;7.03;2.77;;;28.40;43.90;;;;;;4984703;28;20446;-74
2022/05/29 12:39:55;;;;;;;7.60;3.67;;;28.80;42.60;;;;;;4985969;28;20516;-73
2022/05/29 12:43:01;;;;;;;4.97;2.70;;;28.40;43.60;;;;;;4985436;28;20448;-74
2022/05/29 12:45:51;;;;;;;4.27;2.83;;;28.00;42.70;;;;;;4931012;28;21020;-72
2022/05/29 12:48:27;;;;;;;4.10;2.60;;;27.50;44.20;;;;;;4992894;28;21361;-74
2022/05/29 12:51:30;;;;;;;4.20;3.13;;;28.10;44.60;;;;;;4963376;28;20445;-75
2022/05/29 12:54:28;;;;;;;6.57;3.53;;;27.60;44.50;;;;;;4987905;28;20495;-74
2022/05/29 12:57:29;;;;;;;6.50;4.00;;;25.90;45.60;;;;;;4955380;28;20461;-75
2022/05/29 13:00:28;;;;;;;3.30;2.83;;;25.50;46.90;;;;;;4989099;28;20962;-74
2022/05/29 13:03:26;;;;;;;5.57;2.70;;;24.70;48.30;;;;;;4985155;28;20485;-74
2022/05/29 13:06:16;;;;;;;5.03;2.80;;;24.00;49.20;;;;;;4983888;28;20534;-72
2022/05/29 13:09:10;;;;;;;5.43;3.23;;;23.60;50.10;;;;;;4962662;28;20475;-72
2022/05/29 13:11:40;;;;;;;4.23;2.77;;;23.20;50.60;;;;;;4983965;28;20493;-73
2022/05/29 13:14:08;;;;;;;5.50;3.70;;;22.70;51.60;;;;;;4985475;28;20892;-74
2022/05/29 13:16:43;;;;;;;6.20;2.97;;;22.60;51.20;;;;;;4964731;28;21154;-72
2022/05/29 13:19:19;;;;;;;4.30;2.73;;;22.50;51.50;;;;;;4987895;28;20436;-72
2022/05/29 13:22:01;;;;;;;5.07;3.00;;;22.50;51.20;;;;;;4968870;28;20511;-72
2022/05/29 13:24:33;;;;;;;3.30;2.60;;;22.40;51.90;;;;;;4985064;28;20440;-72
2022/05/29 13:27:16;;;;;;;5.67;3.00;;;22.40;51.80;;;;;;4989736;28;20799;-74
2022/05/29 13:29:54;;;;;;;3.67;2.60;;;22.50;51.30;;;;;;4996740;28;20785;-72
2022/05/29 13:32:21;;;;;;;7.87;2.70;;;22.90;51.90;;;;;;4997453;28;20453;-72
2022/05/29 13:34:59;;;;;;;5.17;2.10;;;24.50;51.60;;;;;;4992116;28;20454;-76
2022/05/29 13:37:30;;;;;;;4.20;2.33;;;27.60;48.40;;;;;;4991223;28;20611;-75
2022/05/29 13:40:06;;;;;;;6.03;3.07;;;30.60;41.10;;;;;;4991691;28;20460;-73
2022/05/29 13:43:14;;;;;;;3.80;2.57;;;34.00;38.50;;;;;;4994663;28;20430;-72
2022/05/29 13:45:42;;;;;;;3.27;2.50;;;37.20;35.10;;;;;;4970213;28;21015;-72
2022/05/29 13:48:22;;;;;;;3.30;2.37;;;39.20;32.30;;;;;;4986466;28;22108;-74
2022/05/29 13:51:23;;;;;;;3.13;2.50;;;40.30;29.70;;;;;;4981923;28;20433;-72